createdAt,value
2018-04-17T00:01:11.326Z,11.00
2018-04-17T00:03:38.818Z,10.80
2018-04-17T00:06:06.424Z,10.80
2018-04-17T00:08:34.270Z,10.80
2018-04-17T00:11:02.020Z,10.70
2018-04-17T00:13:29.658Z,10.80
2018-04-17T00:15:57.174Z,10.70
2018-04-17T00:18:24.724Z,10.60
2018-04-17T00:20:52.240Z,10.70
2018-04-17T00:23:19.814Z,10.70
2018-04-17T00:25:47.331Z,10.60
2018-04-17T00:28:14.830Z,10.60
2018-04-17T00:30:43.171Z,10.70
2018-04-17T00:33:10.827Z,10.70
2018-04-17T00:35:38.413Z,10.50
2018-04-17T00:38:05.973Z,10.40
2018-04-17T00:40:33.485Z,10.30
2018-04-17T00:43:00.976Z,10.30
2018-04-17T00:45:28.559Z,10.40
2018-04-17T00:47:56.090Z,10.20
2018-04-17T00:50:23.604Z,10.20
2018-04-17T00:52:51.269Z,10.20
2018-04-17T00:55:18.777Z,10.10
2018-04-17T00:57:50.009Z,10.20
2018-04-17T01:00:17.578Z,10.10
2018-04-17T01:02:45.093Z,10.00
2018-04-17T01:05:12.600Z,10.10
2018-04-17T01:07:40.118Z,10.00
2018-04-17T01:10:07.737Z,10.10
2018-04-17T01:12:35.210Z,9.90
2018-04-17T01:15:03.461Z,10.00
2018-04-17T01:17:31.166Z,10.00
2018-04-17T01:19:58.767Z,10.00
2018-04-17T01:22:26.312Z,9.90
2018-04-17T01:24:53.809Z,9.80
2018-04-17T01:27:21.317Z,9.80
2018-04-17T01:29:48.801Z,9.80
2018-04-17T01:32:16.587Z,9.90
2018-04-17T01:34:44.873Z,9.80
2018-04-17T01:37:13.163Z,9.80
2018-04-17T01:39:41.606Z,9.70
2018-04-17T01:42:09.931Z,9.80
2018-04-17T01:44:37.438Z,9.70
2018-04-17T01:47:04.960Z,9.70
2018-04-17T01:49:32.468Z,9.60
2018-04-17T01:52:00.818Z,9.60
2018-04-17T01:54:28.331Z,9.60
2018-04-17T01:56:55.849Z,9.60
2018-04-17T01:59:23.375Z,9.60
2018-04-17T02:01:51.714Z,9.60
2018-04-17T02:04:19.267Z,9.60
2018-04-17T02:06:47.543Z,9.60
2018-04-17T02:09:15.119Z,9.60
2018-04-17T02:11:42.690Z,9.50
2018-04-17T02:14:10.205Z,9.40
2018-04-17T02:16:37.681Z,9.30
2018-04-17T02:19:05.187Z,9.40
2018-04-17T02:21:32.693Z,9.40
2018-04-17T02:24:00.988Z,9.30
2018-04-17T02:26:28.497Z,9.30
2018-04-17T02:28:55.987Z,9.40
2018-04-17T02:31:23.489Z,9.30
2018-04-17T02:33:50.970Z,9.30
2018-04-17T02:36:18.476Z,9.30
2018-04-17T02:38:45.991Z,9.30
2018-04-17T02:41:13.515Z,9.30
2018-04-17T02:43:41.024Z,9.30
2018-04-17T02:46:08.676Z,9.30
2018-04-17T02:48:36.960Z,9.20
2018-04-17T02:51:05.219Z,9.20
2018-04-17T02:53:32.757Z,9.20
2018-04-17T02:56:00.279Z,9.20
2018-04-17T02:58:27.785Z,9.20
2018-04-17T03:00:55.270Z,9.20
2018-04-17T03:03:23.542Z,9.00
2018-04-17T03:05:51.896Z,9.00
2018-04-17T03:08:19.420Z,8.90
2018-04-17T03:10:46.912Z,9.00
2018-04-17T03:13:14.455Z,9.00
2018-04-17T03:15:41.971Z,9.10
2018-04-17T03:18:09.472Z,9.10
2018-04-17T03:20:36.980Z,9.10
2018-04-17T03:23:04.571Z,9.20
2018-04-17T03:25:32.202Z,9.20
2018-04-17T03:27:59.692Z,9.10
2018-04-17T03:30:27.210Z,9.10
2018-04-17T03:32:54.730Z,9.00
2018-04-17T03:35:22.222Z,8.90
2018-04-17T03:37:49.732Z,8.90
2018-04-17T03:40:17.264Z,9.00
2018-04-17T03:42:44.917Z,8.80
2018-04-17T03:45:12.438Z,8.90
2018-04-17T03:47:40.742Z,8.90
2018-04-17T03:50:08.231Z,8.80
2018-04-17T03:52:35.812Z,8.90
2018-04-17T03:55:03.307Z,8.90
2018-04-17T03:57:30.848Z,8.90
2018-04-17T03:59:58.318Z,8.80
2018-04-17T04:02:25.822Z,8.70
2018-04-17T04:04:53.333Z,8.70
2018-04-17T04:07:20.825Z,8.80
2018-04-17T04:09:48.331Z,8.70
2018-04-17T04:12:15.856Z,8.60
2018-04-17T04:14:43.394Z,8.60
2018-04-17T04:17:22.933Z,8.70
2018-04-17T04:20:02.409Z,8.70
2018-04-17T04:22:41.913Z,8.80
2018-04-17T04:28:14.649Z,8.70
2018-04-17T04:30:43.020Z,8.60
2018-04-17T04:33:10.643Z,8.60
2018-04-17T04:35:38.204Z,8.70
2018-04-17T04:38:05.721Z,8.50
2018-04-17T04:40:34.066Z,8.60
2018-04-17T04:43:01.647Z,8.60
2018-04-17T04:45:29.270Z,8.70
2018-04-17T04:47:56.776Z,8.60
2018-04-17T04:50:25.031Z,8.70
2018-04-17T04:52:52.575Z,8.70
2018-04-17T04:55:20.129Z,8.70
2018-04-17T04:57:47.611Z,8.80
2018-04-17T05:00:15.143Z,8.70
2018-04-17T05:02:42.630Z,8.70
2018-04-17T05:05:10.146Z,8.70
2018-04-17T05:07:37.637Z,8.70
2018-04-17T05:10:05.156Z,8.70
2018-04-17T05:12:32.668Z,8.80
2018-04-17T05:15:00.958Z,8.90
2018-04-17T05:17:28.826Z,8.90
2018-04-17T05:19:56.440Z,8.90
2018-04-17T05:22:24.037Z,8.90
2018-04-17T05:24:52.455Z,9.00
2018-04-17T05:27:19.953Z,9.00
2018-04-17T05:29:48.051Z,9.00
2018-04-17T05:32:15.563Z,9.00
2018-04-17T05:34:43.874Z,9.00
2018-04-17T05:37:12.309Z,9.00
2018-04-17T05:39:39.899Z,9.00
2018-04-17T05:42:07.387Z,9.00
2018-04-17T05:44:34.952Z,9.00
2018-04-17T05:47:02.491Z,9.00
2018-04-17T05:49:30.903Z,9.00
2018-04-17T05:51:58.510Z,9.00
2018-04-17T05:54:26.417Z,9.00
2018-04-17T05:56:54.064Z,9.00
2018-04-17T05:59:22.001Z,9.10
2018-04-17T06:01:49.621Z,9.20
2018-04-17T06:04:17.357Z,9.30
2018-04-17T06:06:45.025Z,9.40
2018-04-17T06:09:12.900Z,9.50
2018-04-17T06:11:40.688Z,9.60
2018-04-17T06:14:08.248Z,9.70
2018-04-17T06:16:35.883Z,9.80
2018-04-17T06:19:03.562Z,9.90
2018-04-17T06:21:31.179Z,10.00
2018-04-17T06:23:59.494Z,10.20
2018-04-17T06:26:27.052Z,10.20
2018-04-17T06:28:54.712Z,10.30
2018-04-17T06:31:22.496Z,10.40
2018-04-17T06:33:50.134Z,10.50
2018-04-17T06:36:17.722Z,10.60
2018-04-17T06:38:45.310Z,10.70
2018-04-17T06:41:12.905Z,10.80
2018-04-17T06:43:40.519Z,10.90
2018-04-17T06:46:08.119Z,11.00
2018-04-17T06:48:36.233Z,11.10
2018-04-17T06:51:03.871Z,11.20
2018-04-17T06:53:31.400Z,11.30
2018-04-17T06:55:59.187Z,11.50
2018-04-17T06:58:26.778Z,11.60
2018-04-17T07:00:54.381Z,11.80
2018-04-17T07:03:21.989Z,11.90
2018-04-17T07:05:49.707Z,12.10
2018-04-17T07:08:17.261Z,12.30
2018-04-17T07:10:44.978Z,12.50
2018-04-17T07:13:12.594Z,12.80
2018-04-17T07:15:40.273Z,12.90
2018-04-17T07:18:07.870Z,13.00
2018-04-17T07:20:35.467Z,13.10
2018-04-17T07:23:03.045Z,13.20
2018-04-17T07:25:31.613Z,13.30
2018-04-17T07:27:59.361Z,13.20
2018-04-17T07:30:27.105Z,13.40
2018-04-17T07:32:54.701Z,13.40
2018-04-17T07:35:22.465Z,13.50
2018-04-17T07:37:50.056Z,13.50
2018-04-17T07:40:17.611Z,13.60
2018-04-17T07:42:45.245Z,13.80
2018-04-17T07:45:12.781Z,14.00
2018-04-17T07:47:52.256Z,14.20
2018-04-17T07:50:19.983Z,14.30
2018-04-17T07:52:47.831Z,14.50
2018-04-17T07:55:15.611Z,14.50
2018-04-17T07:57:43.990Z,14.80
2018-04-17T08:00:11.650Z,14.80
2018-04-17T08:02:39.950Z,14.90
2018-04-17T08:05:07.783Z,14.90
2018-04-17T08:07:36.067Z,15.00
2018-04-17T08:10:04.554Z,15.20
2018-04-17T08:12:32.146Z,15.10
2018-04-17T08:14:59.729Z,15.20
2018-04-17T08:17:27.563Z,15.30
2018-04-17T08:22:29.643Z,15.20
2018-04-17T08:24:57.454Z,15.20
2018-04-17T08:27:25.137Z,15.20
2018-04-17T08:29:53.654Z,15.30
2018-04-17T08:32:21.437Z,15.30
2018-04-17T08:34:49.163Z,15.50
2018-04-17T08:37:16.774Z,15.60
2018-04-17T08:39:44.547Z,15.70
2018-04-17T08:42:12.264Z,15.70
2018-04-17T08:44:39.787Z,15.80
2018-04-17T08:47:07.410Z,15.90
2018-04-17T08:49:35.144Z,15.90
2018-04-17T08:52:02.675Z,16.00
2018-04-17T08:54:31.279Z,16.20
2018-04-17T08:56:58.806Z,16.20
2018-04-17T08:59:26.637Z,16.40
2018-04-17T09:01:54.173Z,16.40
2018-04-17T09:04:21.784Z,16.30
2018-04-17T09:06:49.637Z,16.50
2018-04-17T09:09:17.260Z,16.50
2018-04-17T09:11:45.047Z,16.70
2018-04-17T09:14:12.689Z,16.80
2018-04-17T09:16:41.008Z,16.90
2018-04-17T09:19:09.610Z,17.00
2018-04-17T09:21:38.177Z,17.20
2018-04-17T09:24:05.936Z,17.20
2018-04-17T09:26:34.434Z,17.30
2018-04-17T09:29:02.838Z,17.20
2018-04-17T09:31:30.565Z,17.20
2018-04-17T09:33:58.897Z,17.40
2018-04-17T09:36:26.436Z,17.40
2018-04-17T09:38:54.316Z,17.60
2018-04-17T09:41:22.748Z,17.60
2018-04-17T09:43:50.382Z,17.60
2018-04-17T09:46:18.026Z,17.70
2018-04-17T09:48:45.825Z,17.90
2018-04-17T09:51:13.332Z,17.90
2018-04-17T09:53:41.095Z,18.10
2018-04-17T09:56:08.923Z,18.20
2018-04-17T09:58:36.643Z,18.20
2018-04-17T10:01:04.214Z,18.30
2018-04-17T10:03:32.586Z,18.40
2018-04-17T10:06:00.251Z,18.40
2018-04-17T10:08:28.038Z,18.50
2018-04-17T10:10:56.477Z,18.60
2018-04-17T10:13:24.042Z,18.60
2018-04-17T10:15:51.616Z,18.70
2018-04-17T10:18:19.191Z,18.70
2018-04-17T10:20:46.840Z,18.90
2018-04-17T10:23:14.578Z,19.00
2018-04-17T10:25:43.187Z,19.10
2018-04-17T10:28:10.908Z,19.20
2018-04-17T10:30:38.518Z,19.20
2018-04-17T10:33:06.094Z,19.20
2018-04-17T10:35:33.684Z,19.20
2018-04-17T10:38:01.260Z,19.30
2018-04-17T10:40:29.701Z,19.40
2018-04-17T10:42:57.384Z,19.30
2018-04-17T10:45:24.952Z,19.50
2018-04-17T10:47:52.613Z,19.50
2018-04-17T10:50:20.962Z,19.50
2018-04-17T10:52:48.499Z,19.50
2018-04-17T10:55:16.934Z,19.60
2018-04-17T10:57:44.581Z,19.60
2018-04-17T11:00:12.110Z,19.70
2018-04-17T11:02:41.082Z,19.80
2018-04-17T11:05:09.439Z,19.90
2018-04-17T11:07:37.007Z,19.90
2018-04-17T11:10:05.453Z,20.00
2018-04-17T11:12:33.063Z,20.00
2018-04-17T11:15:00.712Z,20.10
2018-04-17T11:17:28.265Z,20.10
2018-04-17T11:19:56.046Z,20.30
2018-04-17T11:22:24.392Z,20.30
2018-04-17T11:24:52.131Z,20.30
2018-04-17T11:27:19.793Z,20.40
2018-04-17T11:29:47.415Z,20.60
2018-04-17T11:32:15.722Z,20.70
2018-04-17T11:34:43.303Z,20.70
2018-04-17T11:37:11.811Z,21.00
2018-04-17T11:39:39.333Z,21.00
2018-04-17T11:42:06.963Z,21.10
2018-04-17T11:44:35.288Z,21.00
2018-04-17T11:47:02.838Z,21.00
2018-04-17T11:49:31.546Z,21.20
2018-04-17T11:52:00.061Z,21.20
2018-04-17T11:54:27.604Z,21.20
2018-04-17T11:56:55.353Z,21.20
2018-04-17T11:59:23.301Z,21.30
2018-04-17T12:01:51.040Z,21.40
2018-04-17T12:04:18.724Z,21.50
2018-04-17T12:06:46.550Z,21.70
2018-04-17T12:09:14.222Z,21.80
2018-04-17T12:11:41.785Z,21.90
2018-04-17T12:14:09.427Z,21.80
2018-04-17T12:16:37.154Z,21.80
2018-04-17T12:19:04.819Z,21.90
2018-04-17T12:21:32.486Z,22.00
2018-04-17T12:24:00.039Z,22.00
2018-04-17T12:26:27.582Z,22.10
2018-04-17T12:28:55.192Z,22.20
2018-04-17T12:31:22.801Z,22.40
2018-04-17T12:33:50.460Z,22.30
2018-04-17T12:36:18.038Z,22.40
2018-04-17T12:38:45.825Z,22.30
2018-04-17T12:41:13.477Z,22.30
2018-04-17T12:43:41.754Z,22.20
2018-04-17T12:46:09.627Z,22.20
2018-04-17T12:48:37.356Z,22.30
2018-04-17T12:51:05.009Z,22.40
2018-04-17T12:53:32.533Z,22.60
2018-04-17T12:56:00.083Z,22.70
2018-04-17T12:58:27.753Z,22.70
2018-04-17T13:00:55.311Z,22.80
2018-04-17T13:03:22.838Z,22.80
2018-04-17T13:05:50.352Z,22.70
2018-04-17T13:08:18.140Z,22.70
2018-04-17T13:10:45.858Z,22.70
2018-04-17T13:13:13.476Z,22.80
2018-04-17T13:15:41.054Z,22.70
2018-04-17T13:18:09.348Z,22.50
2018-04-17T13:20:36.906Z,22.50
2018-04-17T13:23:04.587Z,22.50
2018-04-17T13:25:32.935Z,22.90
2018-04-17T13:28:00.536Z,22.80
2018-04-17T13:30:28.183Z,22.90
2018-04-17T13:32:56.045Z,23.20
2018-04-17T13:35:23.582Z,23.30
2018-04-17T13:37:51.177Z,23.20
2018-04-17T13:40:19.608Z,23.40
2018-04-17T13:42:47.318Z,23.40
2018-04-17T13:45:15.721Z,23.60
2018-04-17T13:47:43.272Z,23.60
2018-04-17T13:50:10.953Z,23.40
2018-04-17T13:52:38.522Z,23.40
2018-04-17T13:55:06.201Z,23.50
2018-04-17T13:57:33.738Z,23.70
2018-04-17T14:00:02.025Z,23.60
2018-04-17T14:02:29.580Z,23.50
2018-04-17T14:04:57.059Z,23.70
2018-04-17T14:07:24.559Z,23.80
2018-04-17T14:09:52.139Z,23.60
2018-04-17T14:12:19.594Z,23.70
2018-04-17T14:14:47.125Z,23.70
2018-04-17T14:17:14.742Z,23.60
2018-04-17T14:19:43.008Z,23.30
2018-04-17T14:22:10.512Z,23.30
2018-04-17T14:24:37.999Z,23.20
2018-04-17T14:27:06.312Z,23.10
2018-04-17T14:29:33.817Z,23.10
2018-04-17T14:32:01.327Z,23.10
2018-04-17T14:34:28.825Z,23.10
2018-04-17T14:36:56.402Z,23.10
2018-04-17T14:39:23.919Z,23.10
2018-04-17T14:41:51.418Z,23.40
2018-04-17T14:44:18.904Z,23.80
2018-04-17T14:46:46.427Z,23.90
2018-04-17T14:49:13.937Z,24.00
2018-04-17T14:51:41.485Z,24.30
2018-04-17T14:54:09.800Z,25.60
2018-04-17T14:56:38.478Z,26.10
2018-04-17T14:59:05.953Z,26.00
2018-04-17T15:01:33.484Z,26.60
2018-04-17T15:04:01.415Z,27.50
2018-04-17T15:06:29.782Z,29.30
2018-04-17T15:08:58.120Z,29.50
2018-04-17T15:11:25.920Z,29.50
2018-04-17T15:13:54.200Z,30.70
2018-04-17T15:16:22.454Z,31.40
2018-04-17T15:18:50.022Z,31.30
2018-04-17T15:21:18.189Z,31.80
2018-04-17T15:23:45.757Z,32.10
2018-04-17T15:26:13.284Z,32.40
2018-04-17T15:28:40.830Z,32.20
2018-04-17T15:31:08.381Z,31.50
2018-04-17T15:33:35.891Z,30.80
2018-04-17T15:36:03.409Z,29.50
2018-04-17T15:38:31.727Z,28.30
2018-04-17T15:40:59.292Z,27.30
2018-04-17T15:43:26.801Z,26.80
2018-04-17T15:45:54.277Z,26.30
2018-04-17T15:48:21.840Z,25.80
2018-04-17T15:50:51.603Z,25.20
2018-04-17T15:53:19.147Z,24.80
2018-04-17T15:55:47.425Z,24.10
2018-04-17T15:58:15.719Z,23.80
2018-04-17T16:00:43.270Z,23.80
2018-04-17T16:03:10.801Z,23.70
2018-04-17T16:05:39.083Z,23.40
2018-04-17T16:08:07.383Z,23.20
2018-04-17T16:10:34.997Z,23.20
2018-04-17T16:13:02.555Z,23.00
2018-04-17T16:15:30.080Z,22.80
2018-04-17T16:17:57.683Z,22.60
2018-04-17T16:20:25.220Z,22.40
2018-04-17T16:22:52.854Z,22.20
2018-04-17T16:25:20.407Z,22.00
2018-04-17T16:27:47.973Z,21.80
2018-04-17T16:30:15.492Z,21.70
2018-04-17T16:32:43.019Z,21.60
2018-04-17T16:35:10.537Z,21.50
2018-04-17T16:37:38.078Z,21.20
2018-04-17T16:40:05.592Z,21.20
2018-04-17T16:42:33.096Z,21.10
2018-04-17T16:45:00.664Z,21.10
2018-04-17T16:47:28.170Z,21.00
2018-04-17T16:49:55.786Z,20.80
2018-04-17T16:52:23.312Z,20.70
2018-04-17T16:54:50.795Z,20.70
2018-04-17T16:57:18.404Z,20.50
2018-04-17T16:59:46.028Z,20.40
2018-04-17T17:02:14.554Z,20.20
2018-04-17T17:04:42.185Z,20.10
2018-04-17T17:07:09.664Z,20.00
2018-04-17T17:09:37.358Z,19.80
2018-04-17T17:12:06.780Z,19.80
2018-04-17T17:14:34.296Z,19.70
2018-04-17T17:17:02.649Z,19.60
2018-04-17T17:19:30.147Z,19.60
2018-04-17T17:21:58.719Z,19.60
2018-04-17T17:24:26.344Z,19.60
2018-04-17T17:26:54.128Z,19.60
2018-04-17T17:29:25.492Z,19.60
2018-04-17T17:31:53.212Z,19.60
2018-04-17T17:34:20.742Z,19.40
2018-04-17T17:36:48.531Z,19.30
2018-04-17T17:39:16.140Z,19.30
2018-04-17T17:41:44.421Z,19.20
2018-04-17T17:44:12.776Z,19.10
2018-04-17T17:46:40.200Z,19.00
2018-04-17T17:49:07.934Z,19.00
2018-04-17T17:51:35.430Z,19.00
2018-04-17T17:54:02.910Z,18.80
2018-04-17T17:56:30.422Z,18.80
2018-04-17T17:58:58.739Z,18.70
2018-04-17T18:01:26.241Z,18.70
2018-04-17T18:03:53.785Z,18.70
2018-04-17T18:06:22.110Z,18.50
2018-04-17T18:08:49.761Z,18.50
2018-04-17T18:11:17.600Z,18.30
2018-04-17T18:13:45.090Z,18.20
2018-04-17T18:16:12.607Z,18.20
2018-04-17T18:18:40.937Z,18.00
2018-04-17T18:21:08.529Z,18.00
2018-04-17T18:23:36.787Z,17.80
2018-04-17T18:26:04.430Z,17.80
2018-04-17T18:28:31.999Z,17.70
2018-04-17T18:30:59.508Z,17.70
2018-04-17T18:33:26.995Z,17.60
2018-04-17T18:35:54.644Z,17.60
2018-04-17T18:38:22.170Z,17.50
2018-04-17T18:40:50.521Z,17.30
2018-04-17T18:43:18.199Z,17.30
2018-04-17T18:45:46.444Z,17.00
2018-04-17T18:48:14.226Z,17.00
2018-04-17T18:50:41.798Z,17.00
2018-04-17T18:53:09.362Z,16.90
2018-04-17T18:55:37.751Z,16.80
2018-04-17T18:58:05.258Z,16.80
2018-04-17T19:00:32.793Z,16.70
2018-04-17T19:03:00.341Z,16.70
2018-04-17T19:05:28.027Z,16.60
2018-04-17T19:07:55.647Z,16.50
2018-04-17T19:10:23.172Z,16.30
2018-04-17T19:12:50.690Z,16.30
2018-04-17T19:15:18.201Z,16.20
2018-04-17T19:17:49.711Z,15.90
2018-04-17T19:20:17.405Z,15.90
2018-04-17T19:22:45.179Z,16.10
2018-04-17T19:25:13.476Z,16.00
2018-04-17T19:27:41.099Z,15.90
2018-04-17T19:30:08.743Z,16.00
2018-04-17T19:32:36.330Z,15.90
2018-04-17T19:35:03.934Z,15.80
2018-04-17T19:37:32.504Z,15.70
2018-04-17T19:40:00.217Z,15.80
2018-04-17T19:42:27.811Z,15.80
2018-04-17T19:44:55.522Z,15.70
2018-04-17T19:47:23.223Z,15.70
2018-04-17T19:49:54.994Z,15.50
2018-04-17T19:52:23.302Z,15.40
2018-04-17T19:54:50.810Z,15.40
2018-04-17T19:57:18.482Z,15.40
2018-04-17T19:59:45.978Z,15.30
2018-04-17T20:02:13.525Z,15.30
2018-04-17T20:04:41.277Z,15.20
2018-04-17T20:07:08.917Z,15.20
2018-04-17T20:09:37.178Z,15.00
2018-04-17T20:12:04.877Z,15.00
2018-04-17T20:14:32.487Z,15.00
2018-04-17T20:17:00.067Z,14.90
2018-04-17T20:19:27.699Z,14.90
2018-04-17T20:21:56.874Z,14.70
2018-04-17T20:24:24.392Z,14.70
2018-04-17T20:26:51.992Z,14.70
2018-04-17T20:29:19.572Z,14.70
2018-04-17T20:31:47.165Z,14.60
2018-04-17T20:34:14.675Z,14.60
2018-04-17T20:36:42.193Z,14.60
2018-04-17T20:39:09.990Z,14.60
2018-04-17T20:41:37.504Z,14.50
2018-04-17T20:44:05.011Z,14.30
2018-04-17T20:46:32.809Z,14.30
2018-04-17T20:49:01.284Z,14.30
2018-04-17T20:51:28.854Z,14.20
2018-04-17T20:53:56.603Z,14.20
2018-04-17T20:56:24.231Z,14.20
2018-04-17T20:58:51.892Z,14.20
2018-04-17T21:01:20.368Z,14.20
2018-04-17T21:03:47.953Z,14.20
2018-04-17T21:06:15.515Z,14.10
2018-04-17T21:08:43.068Z,14.20
2018-04-17T21:11:15.033Z,14.10
2018-04-17T21:13:42.531Z,14.10
2018-04-17T21:16:11.013Z,14.10
2018-04-17T21:18:39.286Z,14.00
2018-04-17T21:21:07.538Z,14.10
2018-04-17T21:23:35.061Z,14.10
2018-04-17T21:26:02.546Z,14.00
2018-04-17T21:28:30.038Z,14.00
2018-04-17T21:30:57.560Z,14.00
2018-04-17T21:33:25.132Z,13.90
2018-04-17T21:35:52.699Z,13.90
2018-04-17T21:38:20.191Z,13.80
2018-04-17T21:40:51.555Z,13.70
2018-04-17T21:43:19.062Z,13.70
2018-04-17T21:45:47.349Z,13.70
2018-04-17T21:48:15.721Z,13.60
2018-04-17T21:50:43.997Z,13.50
2018-04-17T21:53:11.516Z,13.50
2018-04-17T21:55:39.002Z,13.60
2018-04-17T21:58:06.588Z,13.50
2018-04-17T22:00:34.210Z,13.50
2018-04-17T22:03:05.478Z,13.50
2018-04-17T22:05:33.760Z,13.50
2018-04-17T22:08:02.055Z,13.40
2018-04-17T22:10:29.781Z,13.40
2018-04-17T22:12:57.344Z,13.50
2018-04-17T22:15:25.634Z,13.60
2018-04-17T22:17:53.196Z,13.60
2018-04-17T22:20:20.790Z,13.60
2018-04-17T22:22:48.836Z,13.60
2018-04-17T22:25:16.596Z,13.60
2018-04-17T22:27:44.137Z,13.60
2018-04-17T22:30:12.491Z,13.60
2018-04-17T22:32:40.117Z,13.60
2018-04-17T22:35:07.681Z,13.50
2018-04-17T22:37:35.393Z,13.60
2018-04-17T22:40:03.792Z,13.40
2018-04-17T22:42:31.350Z,13.40
2018-04-17T22:44:58.960Z,13.40
2018-04-17T22:47:26.523Z,13.50
2018-04-17T22:49:54.061Z,13.50
2018-04-17T22:52:21.574Z,13.40
2018-04-17T22:54:49.904Z,13.40
2018-04-17T22:57:17.425Z,13.40
2018-04-17T22:59:45.054Z,13.40
2018-04-17T23:02:13.493Z,13.30
2018-04-17T23:04:41.154Z,13.30
2018-04-17T23:07:08.687Z,13.30
2018-04-17T23:09:36.246Z,13.40
2018-04-17T23:12:04.535Z,13.50
2018-04-17T23:14:32.094Z,13.50
2018-04-17T23:16:59.599Z,13.60
2018-04-17T23:19:28.043Z,13.60
2018-04-17T23:21:55.576Z,13.50
2018-04-17T23:24:23.558Z,13.60
2018-04-17T23:26:51.144Z,13.60
2018-04-17T23:29:18.931Z,13.60
2018-04-17T23:31:47.209Z,13.60
2018-04-17T23:34:15.476Z,13.60
2018-04-17T23:36:43.027Z,13.60
2018-04-17T23:39:11.402Z,13.60
2018-04-17T23:41:38.964Z,13.50
2018-04-17T23:44:06.463Z,13.60
2018-04-17T23:46:34.044Z,13.50
2018-04-17T23:49:01.561Z,13.60
2018-04-17T23:51:29.849Z,13.50
2018-04-17T23:53:57.384Z,13.50
2018-04-17T23:56:24.931Z,13.40
2018-04-17T23:58:52.773Z,13.40
